createdAt,value
2018-05-21T00:01:04.141Z,2.17
2018-05-21T00:03:31.641Z,1.87
2018-05-21T00:05:59.166Z,2.00
2018-05-21T00:08:26.665Z,2.00
2018-05-21T00:10:54.185Z,2.10
2018-05-21T00:13:21.691Z,2.10
2018-05-21T00:15:49.218Z,1.70
2018-05-21T00:18:16.718Z,1.80
2018-05-21T00:20:45.054Z,1.83
2018-05-21T00:23:12.554Z,1.57
2018-05-21T00:25:40.849Z,1.90
2018-05-21T00:28:08.361Z,1.97
2018-05-21T00:30:35.884Z,2.20
2018-05-21T00:33:03.390Z,1.93
2018-05-21T00:35:31.681Z,2.40
2018-05-21T00:37:59.185Z,2.20
2018-05-21T00:40:26.689Z,2.20
2018-05-21T00:42:54.221Z,2.00
2018-05-21T00:45:21.732Z,1.90
2018-05-21T00:47:49.266Z,1.90
2018-05-21T00:50:16.904Z,1.97
2018-05-21T00:52:44.373Z,2.27
2018-05-21T00:55:23.754Z,1.90
2018-05-21T00:57:51.282Z,1.90
2018-05-21T01:00:18.830Z,2.20
2018-05-21T01:02:46.358Z,2.57
2018-05-21T01:05:14.625Z,2.17
2018-05-21T01:07:42.940Z,2.20
2018-05-21T01:10:10.480Z,2.17
2018-05-21T01:12:38.015Z,2.67
2018-05-21T01:15:06.291Z,2.30
2018-05-21T01:17:34.587Z,4.03
2018-05-21T01:20:02.160Z,2.10
2018-05-21T01:22:29.695Z,2.03
2018-05-21T01:24:57.205Z,2.33
2018-05-21T01:27:24.778Z,2.33
2018-05-21T01:29:52.278Z,2.73
2018-05-21T01:32:19.818Z,2.17
2018-05-21T01:34:47.358Z,2.37
2018-05-21T01:37:15.713Z,2.23
2018-05-21T01:39:43.226Z,2.20
2018-05-21T01:42:10.766Z,2.50
2018-05-21T01:44:38.287Z,2.57
2018-05-21T01:47:05.835Z,2.00
2018-05-21T01:49:33.342Z,2.30
2018-05-21T01:52:00.846Z,2.60
2018-05-21T01:54:28.398Z,2.67
2018-05-21T01:56:55.910Z,2.33
2018-05-21T01:59:23.447Z,2.57
2018-05-21T02:01:51.724Z,2.90
2018-05-21T02:04:19.263Z,2.10
2018-05-21T02:06:47.544Z,2.70
2018-05-21T02:09:15.842Z,2.10
2018-05-21T02:11:43.367Z,2.13
2018-05-21T02:14:11.661Z,2.70
2018-05-21T02:16:39.202Z,2.37
2018-05-21T02:19:07.533Z,2.60
2018-05-21T02:21:35.037Z,2.67
2018-05-21T02:24:03.338Z,2.23
2018-05-21T02:26:30.849Z,2.50
2018-05-21T02:28:58.383Z,2.70
2018-05-21T02:31:25.890Z,3.27
2018-05-21T02:33:53.453Z,2.63
2018-05-21T02:36:20.973Z,2.83
2018-05-21T02:38:49.287Z,2.90
2018-05-21T02:41:16.807Z,3.57
2018-05-21T02:43:45.130Z,2.73
2018-05-21T02:46:12.638Z,2.80
2018-05-21T02:48:40.165Z,3.10
2018-05-21T02:51:07.674Z,2.50
2018-05-21T02:53:35.209Z,3.20
2018-05-21T02:56:03.493Z,2.80
2018-05-21T02:58:31.796Z,3.40
2018-05-21T03:00:59.334Z,3.33
2018-05-21T03:03:26.851Z,3.20
2018-05-21T03:05:54.390Z,3.43
2018-05-21T03:08:21.899Z,3.10
2018-05-21T03:10:49.430Z,3.33
2018-05-21T03:13:17.005Z,3.43
2018-05-21T03:15:45.297Z,3.10
2018-05-21T03:18:12.803Z,2.93
2018-05-21T03:20:40.341Z,3.57
2018-05-21T03:23:07.849Z,3.23
2018-05-21T03:25:36.142Z,3.90
2018-05-21T03:28:03.650Z,3.20
2018-05-21T03:30:31.195Z,3.50
2018-05-21T03:32:58.740Z,2.90
2018-05-21T03:35:26.282Z,3.83
2018-05-21T03:37:53.810Z,3.33
2018-05-21T03:40:21.345Z,3.20
2018-05-21T03:42:49.122Z,3.60
2018-05-21T03:45:17.418Z,3.43
2018-05-21T03:47:44.926Z,4.00
2018-05-21T03:50:12.450Z,3.57
2018-05-21T03:52:39.959Z,3.60
2018-05-21T03:55:08.258Z,3.60
2018-05-21T03:57:35.784Z,3.63
2018-05-21T04:00:16.005Z,3.40
2018-05-21T04:02:55.358Z,3.50
2018-05-21T04:05:22.891Z,2.97
2018-05-21T04:07:50.394Z,3.00
2018-05-21T04:10:18.685Z,3.10
2018-05-21T04:12:46.189Z,3.33
2018-05-21T04:15:13.717Z,4.00
2018-05-21T04:17:41.220Z,3.67
2018-05-21T04:20:08.727Z,3.37
2018-05-21T04:22:36.259Z,4.37
2018-05-21T04:25:04.238Z,3.50
2018-05-21T04:27:34.339Z,3.63
2018-05-21T04:30:02.241Z,4.43
2018-05-21T04:32:30.990Z,4.37
2018-05-21T04:34:58.547Z,3.60
2018-05-21T04:37:26.073Z,4.07
2018-05-21T04:39:53.574Z,4.53
2018-05-21T04:42:21.106Z,3.90
2018-05-21T04:44:49.373Z,3.53
2018-05-21T04:47:17.670Z,4.10
2018-05-21T04:49:45.183Z,4.40
2018-05-21T04:52:12.718Z,4.50
2018-05-21T04:54:40.218Z,3.93
2018-05-21T04:57:08.525Z,4.00
2018-05-21T04:59:36.034Z,3.50
2018-05-21T05:02:04.336Z,4.13
2018-05-21T05:04:31.842Z,3.63
2018-05-21T05:06:59.374Z,4.40
2018-05-21T05:09:26.883Z,4.13
2018-05-21T05:11:55.191Z,3.73
2018-05-21T05:14:22.702Z,4.03
2018-05-21T05:16:50.234Z,4.63
2018-05-21T05:19:17.734Z,4.13
2018-05-21T05:21:46.039Z,4.03
2018-05-21T05:24:13.556Z,3.77
2018-05-21T05:26:41.913Z,4.50
2018-05-21T05:29:09.396Z,4.07
2018-05-21T05:31:37.672Z,4.50
2018-05-21T05:34:05.210Z,4.60
2018-05-21T05:36:33.483Z,4.73
2018-05-21T05:39:01.789Z,4.80
2018-05-21T05:41:29.298Z,4.00
2018-05-21T05:43:56.831Z,3.80
2018-05-21T05:46:24.339Z,4.83
2018-05-21T05:48:52.687Z,4.27
2018-05-21T05:51:20.168Z,4.40
2018-05-21T05:53:48.458Z,3.73
2018-05-21T05:56:15.966Z,4.20
2018-05-21T05:58:43.498Z,3.80
2018-05-21T06:01:11.001Z,4.10
2018-05-21T06:03:39.384Z,6.20
2018-05-21T06:06:06.831Z,4.50
2018-05-21T06:08:35.126Z,3.53
2018-05-21T06:11:02.633Z,4.30
2018-05-21T06:13:30.167Z,4.07
2018-05-21T06:15:57.670Z,4.37
2018-05-21T06:18:25.966Z,3.63
2018-05-21T06:20:53.469Z,4.00
2018-05-21T06:23:21.005Z,4.70
2018-05-21T06:25:48.525Z,4.37
2018-05-21T06:28:16.037Z,3.63
2018-05-21T06:30:43.566Z,3.73
2018-05-21T06:33:11.078Z,3.80
2018-05-21T06:35:39.378Z,4.30
2018-05-21T06:38:06.884Z,4.50
2018-05-21T06:40:34.421Z,3.80
2018-05-21T06:43:01.937Z,4.10
2018-05-21T06:45:29.470Z,4.40
2018-05-21T06:47:56.980Z,4.27
2018-05-21T06:50:24.509Z,4.17
2018-05-21T06:52:52.018Z,4.00
2018-05-21T06:55:19.550Z,4.43
2018-05-21T06:57:47.079Z,3.87
2018-05-21T07:00:14.603Z,3.63
2018-05-21T07:02:42.107Z,3.93
2018-05-21T07:05:09.634Z,3.70
2018-05-21T07:07:37.914Z,3.97
2018-05-21T07:10:05.457Z,3.80
2018-05-21T07:12:33.730Z,3.90
2018-05-21T07:15:02.026Z,3.70
2018-05-21T07:17:29.530Z,4.10
2018-05-21T07:19:57.061Z,4.27
2018-05-21T07:22:24.575Z,3.93
2018-05-21T07:24:52.878Z,4.23
2018-05-21T07:27:20.391Z,4.00
2018-05-21T07:29:47.923Z,4.20
2018-05-21T07:32:15.430Z,4.10
2018-05-21T07:34:42.950Z,3.53
2018-05-21T07:37:10.481Z,4.27
2018-05-21T07:39:37.990Z,4.20
2018-05-21T07:42:06.287Z,4.13
2018-05-21T07:44:34.307Z,3.50
2018-05-21T07:47:02.709Z,3.97
2018-05-21T07:49:31.605Z,4.63
2018-05-21T07:51:59.649Z,4.23
2018-05-21T07:54:27.938Z,5.40
2018-05-21T07:56:56.238Z,4.13
2018-05-21T07:59:23.746Z,4.67
2018-05-21T08:01:51.273Z,3.70
2018-05-21T08:04:18.787Z,4.20
2018-05-21T08:06:46.327Z,4.10
2018-05-21T08:09:14.611Z,3.47
2018-05-21T08:11:42.906Z,4.40
2018-05-21T08:14:10.411Z,4.27
2018-05-21T08:16:37.941Z,3.63
2018-05-21T08:19:05.448Z,4.37
2018-05-21T08:21:33.738Z,3.90
2018-05-21T08:24:01.249Z,3.63
2018-05-21T08:26:28.790Z,3.87
2018-05-21T08:28:56.301Z,4.50
2018-05-21T08:31:23.836Z,3.73
2018-05-21T08:33:52.114Z,4.23
2018-05-21T08:36:20.415Z,4.13
2018-05-21T08:38:47.922Z,4.50
2018-05-21T08:41:15.453Z,3.93
2018-05-21T08:43:42.978Z,3.73
2018-05-21T08:46:10.486Z,3.80
2018-05-21T08:48:38.038Z,3.70
2018-05-21T08:51:05.551Z,4.00
2018-05-21T08:53:33.074Z,4.17
2018-05-21T08:56:01.363Z,3.60
2018-05-21T08:58:29.654Z,4.20
2018-05-21T09:00:57.166Z,4.00
2018-05-21T09:03:24.702Z,4.00
2018-05-21T09:05:52.227Z,3.97
2018-05-21T09:08:19.759Z,4.57
2018-05-21T09:10:48.035Z,3.80
2018-05-21T09:13:16.328Z,4.13
2018-05-21T09:15:43.841Z,4.30
2018-05-21T09:18:11.414Z,4.07
2018-05-21T09:20:39.691Z,4.00
2018-05-21T09:23:07.986Z,4.30
2018-05-21T09:25:35.495Z,3.67
2018-05-21T09:28:03.031Z,3.30
2018-05-21T09:30:30.533Z,4.13
2018-05-21T09:32:58.831Z,3.93
2018-05-21T09:35:26.338Z,4.40
2018-05-21T09:37:53.871Z,3.53
2018-05-21T09:40:21.390Z,3.23
2018-05-21T09:42:48.918Z,3.40
2018-05-21T09:45:16.432Z,3.93
2018-05-21T09:47:43.946Z,3.80
2018-05-21T09:50:12.243Z,3.60
2018-05-21T09:52:39.755Z,3.67
2018-05-21T09:55:07.366Z,3.60
2018-05-21T09:57:34.889Z,3.80
2018-05-21T10:00:03.187Z,4.33
2018-05-21T10:02:30.699Z,3.90
2018-05-21T10:04:58.227Z,4.53
2018-05-21T10:07:25.738Z,3.50
2018-05-21T10:09:53.291Z,3.90
2018-05-21T10:12:21.571Z,4.47
2018-05-21T10:14:49.099Z,3.57
2018-05-21T10:17:16.603Z,4.00
2018-05-21T10:19:44.206Z,3.50
2018-05-21T10:22:12.014Z,3.17
2018-05-21T10:24:39.550Z,3.80
2018-05-21T10:27:07.821Z,3.67
2018-05-21T10:29:36.122Z,3.30
2018-05-21T10:32:03.633Z,3.40
2018-05-21T10:34:31.174Z,3.03
2018-05-21T10:36:58.758Z,3.83
2018-05-21T10:39:26.244Z,3.33
2018-05-21T10:41:53.761Z,3.30
2018-05-21T10:44:21.292Z,3.30
2018-05-21T10:46:49.603Z,3.30
2018-05-21T10:49:17.117Z,3.53
2018-05-21T10:51:44.630Z,3.60
2018-05-21T10:54:12.161Z,3.63
2018-05-21T10:56:39.671Z,3.50
2018-05-21T10:59:07.212Z,3.90
2018-05-21T11:01:34.716Z,4.30
2018-05-21T11:04:03.031Z,3.43
2018-05-21T11:06:30.539Z,3.10
2018-05-21T11:08:58.074Z,3.10
2018-05-21T11:11:25.582Z,3.07
2018-05-21T11:13:53.891Z,3.30
2018-05-21T11:16:21.398Z,3.40
2018-05-21T11:18:48.935Z,3.47
2018-05-21T11:21:16.446Z,3.60
2018-05-21T11:23:43.978Z,3.30
2018-05-21T11:26:12.254Z,3.20
2018-05-21T11:28:40.550Z,3.47
2018-05-21T11:31:08.060Z,5.03
2018-05-21T11:33:35.590Z,3.40
2018-05-21T11:36:03.104Z,3.80
2018-05-21T11:38:32.134Z,3.93
2018-05-21T11:40:59.645Z,3.43
2018-05-21T11:43:27.941Z,4.00
2018-05-21T11:45:55.454Z,3.10
2018-05-21T11:48:22.992Z,3.03
2018-05-21T11:50:50.713Z,3.80
2018-05-21T11:53:18.239Z,3.47
2018-05-21T11:55:46.541Z,3.60
2018-05-21T11:58:14.046Z,3.63
2018-05-21T12:00:41.577Z,3.50
2018-05-21T12:03:09.087Z,3.80
2018-05-21T12:05:37.387Z,3.40
2018-05-21T12:08:04.898Z,3.33
2018-05-21T12:10:32.435Z,3.80
2018-05-21T12:12:59.947Z,3.40
2018-05-21T12:15:27.473Z,3.40
2018-05-21T12:17:54.978Z,3.30
2018-05-21T12:20:22.557Z,3.23
2018-05-21T12:22:50.071Z,3.10
2018-05-21T12:25:17.599Z,3.20
2018-05-21T12:27:45.102Z,3.60
2018-05-21T12:30:12.627Z,3.30
2018-05-21T12:32:40.898Z,3.80
2018-05-21T12:35:09.190Z,3.90
2018-05-21T12:37:36.702Z,3.17
2018-05-21T12:40:04.243Z,3.70
2018-05-21T12:42:31.765Z,3.40
2018-05-21T12:44:59.297Z,3.30
2018-05-21T12:47:27.565Z,3.07
2018-05-21T12:49:55.863Z,3.43
2018-05-21T12:52:23.372Z,3.50
2018-05-21T12:54:50.900Z,2.93
2018-05-21T12:57:18.402Z,3.10
2018-05-21T12:59:46.704Z,3.27
2018-05-21T13:02:14.222Z,3.80
2018-05-21T13:04:41.747Z,3.33
2018-05-21T13:07:09.254Z,3.30
2018-05-21T13:09:37.555Z,4.37
2018-05-21T13:12:05.062Z,3.07
2018-05-21T13:14:32.605Z,3.67
2018-05-21T13:17:00.117Z,3.20
2018-05-21T13:19:27.645Z,3.10
2018-05-21T13:21:55.923Z,3.40
2018-05-21T13:24:24.318Z,3.67
2018-05-21T13:26:51.749Z,3.33
2018-05-21T13:29:20.054Z,3.10
2018-05-21T13:31:47.568Z,3.20
2018-05-21T13:34:15.093Z,3.47
2018-05-21T13:36:42.605Z,3.40
2018-05-21T13:39:10.155Z,3.30
2018-05-21T13:41:38.421Z,3.57
2018-05-21T13:44:06.727Z,3.20
2018-05-21T13:46:34.243Z,3.60
2018-05-21T13:49:02.547Z,3.40
2018-05-21T13:51:30.051Z,3.60
2018-05-21T13:53:57.586Z,3.10
2018-05-21T13:56:25.090Z,3.30
2018-05-21T13:58:53.445Z,3.70
2018-05-21T14:01:20.922Z,3.90
2018-05-21T14:03:49.198Z,3.90
2018-05-21T14:06:17.499Z,3.63
2018-05-21T14:08:45.002Z,3.80
2018-05-21T14:11:12.536Z,3.50
2018-05-21T14:13:40.045Z,3.23
2018-05-21T14:16:08.355Z,3.57
2018-05-21T14:18:35.866Z,3.37
2018-05-21T14:21:04.168Z,3.27
2018-05-21T14:23:31.739Z,4.70
2018-05-21T14:25:59.270Z,3.80
2018-05-21T14:28:27.537Z,3.40
2018-05-21T14:30:55.839Z,3.57
2018-05-21T14:33:23.356Z,3.30
2018-05-21T14:35:51.658Z,3.93
2018-05-21T14:38:19.178Z,3.60
2018-05-21T14:40:46.710Z,3.40
2018-05-21T14:43:14.218Z,3.43
2018-05-21T14:45:41.756Z,3.60
2018-05-21T14:48:10.044Z,3.23
2018-05-21T14:50:38.344Z,3.47
2018-05-21T14:53:05.855Z,3.47
2018-05-21T14:55:33.389Z,3.27
2018-05-21T14:58:00.903Z,3.80
2018-05-21T15:00:28.444Z,3.50
2018-05-21T15:02:55.958Z,3.70
2018-05-21T15:05:23.528Z,4.07
2018-05-21T15:07:51.039Z,3.87
2018-05-21T15:10:19.747Z,3.33
2018-05-21T15:12:47.264Z,3.50
2018-05-21T15:15:14.805Z,3.20
2018-05-21T15:17:43.082Z,3.30
2018-05-21T15:20:11.379Z,3.60
2018-05-21T15:22:38.904Z,3.20
2018-05-21T15:25:07.212Z,3.60
2018-05-21T15:27:34.718Z,3.60
2018-05-21T15:30:02.251Z,3.77
2018-05-21T15:32:29.761Z,3.47
2018-05-21T15:34:57.299Z,3.50
2018-05-21T15:37:25.579Z,3.20
2018-05-21T15:39:53.870Z,3.73
2018-05-21T15:42:21.377Z,3.60
2018-05-21T15:44:48.911Z,3.60
2018-05-21T15:47:16.419Z,3.37
2018-05-21T15:49:44.731Z,3.50
2018-05-21T15:52:12.262Z,3.57
2018-05-21T15:54:39.791Z,3.80
2018-05-21T15:57:08.066Z,4.10
2018-05-21T15:59:35.606Z,3.20
2018-05-21T16:02:03.109Z,3.63
2018-05-21T16:04:30.635Z,4.20
2018-05-21T16:06:58.906Z,3.40
2018-05-21T16:09:26.414Z,3.57
2018-05-21T16:11:53.941Z,3.13
2018-05-21T16:14:22.210Z,3.17
2018-05-21T16:16:49.754Z,3.80
2018-05-21T16:19:18.038Z,3.80
2018-05-21T16:21:46.338Z,3.90
2018-05-21T16:24:13.852Z,3.80
2018-05-21T16:26:41.387Z,3.53
2018-05-21T16:29:09.664Z,3.50
2018-05-21T16:31:37.210Z,3.93
2018-05-21T16:34:04.718Z,3.43
2018-05-21T16:36:32.249Z,3.37
2018-05-21T16:38:59.761Z,2.90
2018-05-21T16:41:27.316Z,3.57
2018-05-21T16:43:54.827Z,3.70
2018-05-21T16:46:23.122Z,3.70
2018-05-21T16:48:50.631Z,3.57
2018-05-21T16:51:18.161Z,4.00
2018-05-21T16:53:45.679Z,3.80
2018-05-21T16:56:13.222Z,3.70
2018-05-21T16:58:41.490Z,3.37
2018-05-21T17:01:09.022Z,3.10
2018-05-21T17:03:36.539Z,3.03
2018-05-21T17:06:04.069Z,3.60
2018-05-21T17:08:32.346Z,3.97
2018-05-21T17:11:00.641Z,3.67
2018-05-21T17:13:28.150Z,3.60
2018-05-21T17:15:55.772Z,3.13
2018-05-21T17:18:23.282Z,3.30
2018-05-21T17:20:51.586Z,3.50
2018-05-21T17:23:19.099Z,3.30
2018-05-21T17:25:46.629Z,3.60
2018-05-21T17:28:14.138Z,3.83
2018-05-21T17:30:42.450Z,3.30
2018-05-21T17:33:09.955Z,3.90
2018-05-21T17:35:38.388Z,3.43
2018-05-21T17:38:05.876Z,3.43
2018-05-21T17:40:33.441Z,3.57
2018-05-21T17:43:00.951Z,3.70
2018-05-21T17:45:28.491Z,3.63
2018-05-21T17:47:55.993Z,3.67
2018-05-21T17:50:23.521Z,3.30
2018-05-21T17:52:51.025Z,3.90
2018-05-21T17:55:19.327Z,3.43
2018-05-21T17:57:46.884Z,3.57
2018-05-21T18:00:14.379Z,3.30
2018-05-21T18:02:42.656Z,3.93
2018-05-21T18:05:10.186Z,3.93
2018-05-21T18:07:37.699Z,3.40
2018-05-21T18:10:05.239Z,3.80
2018-05-21T18:12:32.756Z,4.00
2018-05-21T18:15:00.286Z,3.90
2018-05-21T18:17:27.798Z,4.00
2018-05-21T18:19:55.302Z,3.97
2018-05-21T18:22:22.840Z,4.17
2018-05-21T18:24:51.115Z,4.17
2018-05-21T18:27:19.410Z,4.27
2018-05-21T18:29:46.926Z,3.97
2018-05-21T18:32:14.459Z,4.60
2018-05-21T18:34:41.992Z,4.07
2018-05-21T18:37:09.522Z,3.83
2018-05-21T18:39:37.034Z,4.03
2018-05-21T18:42:04.570Z,3.93
2018-05-21T18:44:32.087Z,3.60
2018-05-21T18:47:00.454Z,4.60
2018-05-21T18:49:28.732Z,3.30
2018-05-21T18:51:57.031Z,3.70
2018-05-21T18:54:24.542Z,4.00
2018-05-21T18:56:52.069Z,4.03
2018-05-21T18:59:19.577Z,4.20
2018-05-21T19:01:47.982Z,3.63
2018-05-21T19:04:15.498Z,4.57
2018-05-21T19:06:43.794Z,3.67
2018-05-21T19:09:11.297Z,3.60
2018-05-21T19:11:38.825Z,3.80
2018-05-21T19:14:06.338Z,4.23
2018-05-21T19:16:34.649Z,4.20
2018-05-21T19:19:02.154Z,3.80
2018-05-21T19:21:29.685Z,3.93
2018-05-21T19:23:57.199Z,4.40
2018-05-21T19:26:24.734Z,3.90
2018-05-21T19:28:52.246Z,3.80
2018-05-21T19:31:19.773Z,4.43
2018-05-21T19:33:47.287Z,3.60
2018-05-21T19:36:14.821Z,3.80
2018-05-21T19:38:42.322Z,4.67
2018-05-21T19:41:10.631Z,4.17
2018-05-21T19:43:38.143Z,4.23
2018-05-21T19:46:05.645Z,3.70
2018-05-21T19:48:33.169Z,4.17
2018-05-21T19:51:01.462Z,3.50
2018-05-21T19:53:29.008Z,3.80
2018-05-21T19:55:56.519Z,4.10
2018-05-21T19:58:24.047Z,3.53
2018-05-21T20:00:51.555Z,3.93
2018-05-21T20:03:19.867Z,3.83
2018-05-21T20:05:47.379Z,4.00
2018-05-21T20:08:15.677Z,3.60
2018-05-21T20:10:43.204Z,3.83
2018-05-21T20:13:10.729Z,4.30
2018-05-21T20:15:38.242Z,4.23
2018-05-21T20:18:06.535Z,4.07
2018-05-21T20:20:41.871Z,3.80
2018-05-21T20:23:09.428Z,3.50
2018-05-21T20:25:36.942Z,4.10
2018-05-21T20:28:04.465Z,3.80
2018-05-21T20:30:31.974Z,3.70
2018-05-21T20:33:00.265Z,3.77
2018-05-21T20:35:27.775Z,4.03
2018-05-21T20:37:55.338Z,3.60
2018-05-21T20:40:22.842Z,3.27
2018-05-21T20:42:50.411Z,3.80
2018-05-21T20:45:17.997Z,4.00
2018-05-21T20:47:45.497Z,4.00
2018-05-21T20:50:13.034Z,4.00
2018-05-21T20:52:41.313Z,3.63
2018-05-21T20:55:09.617Z,3.87
2018-05-21T20:57:37.131Z,3.60
2018-05-21T21:00:04.671Z,3.27
2018-05-21T21:02:32.189Z,3.53
2018-05-21T21:04:59.727Z,3.40
2018-05-21T21:07:27.281Z,3.17
2018-05-21T21:09:54.828Z,3.83
2018-05-21T21:12:23.106Z,3.00
2018-05-21T21:14:51.415Z,3.00
2018-05-21T21:17:18.927Z,2.90
2018-05-21T21:19:47.227Z,3.00
2018-05-21T21:22:14.747Z,3.00
2018-05-21T21:24:42.282Z,3.40
2018-05-21T21:27:09.793Z,3.07
2018-05-21T21:29:37.327Z,2.93
2018-05-21T21:32:05.610Z,3.33
2018-05-21T21:34:33.920Z,3.27
2018-05-21T21:37:01.427Z,2.90
2018-05-21T21:39:29.697Z,3.33
2018-05-21T21:41:57.235Z,2.97
2018-05-21T21:44:24.740Z,2.80
2018-05-21T21:46:52.275Z,3.80
2018-05-21T21:49:20.545Z,3.10
2018-05-21T21:51:48.843Z,3.37
2018-05-21T21:54:16.351Z,2.87
2018-05-21T21:56:43.882Z,2.77
2018-05-21T21:59:11.390Z,2.80
2018-05-21T22:01:39.682Z,2.70
2018-05-21T22:04:07.203Z,3.20
2018-05-21T22:06:34.729Z,2.87
2018-05-21T22:09:02.242Z,3.63
2018-05-21T22:11:30.539Z,3.17
2018-05-21T22:13:58.051Z,3.07
2018-05-21T22:16:25.583Z,2.90
2018-05-21T22:18:53.085Z,2.90
2018-05-21T22:21:21.386Z,2.90
2018-05-21T22:23:48.944Z,3.70
2018-05-21T22:26:17.207Z,2.73
2018-05-21T22:28:44.726Z,2.70
2018-05-21T22:31:12.231Z,2.57
2018-05-21T22:33:39.763Z,2.70
2018-05-21T22:36:07.276Z,3.00
2018-05-21T22:38:34.810Z,3.13
2018-05-21T22:41:02.318Z,2.90
2018-05-21T22:43:30.617Z,3.03
2018-05-21T22:45:58.152Z,3.10
2018-05-21T22:48:26.446Z,2.87
2018-05-21T22:50:53.954Z,3.27
2018-05-21T22:53:21.486Z,2.80
2018-05-21T22:55:48.993Z,3.10
2018-05-21T22:58:17.315Z,3.50
2018-05-21T23:00:44.828Z,3.13
2018-05-21T23:03:13.122Z,2.80
2018-05-21T23:05:40.694Z,3.20
2018-05-21T23:08:08.226Z,3.10
2018-05-21T23:10:35.741Z,3.50
2018-05-21T23:13:03.274Z,3.70
2018-05-21T23:15:30.856Z,3.23
2018-05-21T23:17:58.385Z,3.20
2018-05-21T23:20:25.891Z,3.20
2018-05-21T23:22:54.186Z,3.27
2018-05-21T23:25:21.690Z,3.53
2018-05-21T23:27:49.213Z,3.43
2018-05-21T23:30:16.726Z,3.97
2018-05-21T23:32:45.021Z,3.10
2018-05-21T23:35:12.531Z,3.40
2018-05-21T23:37:40.069Z,3.13
2018-05-21T23:40:07.570Z,3.47
2018-05-21T23:42:35.843Z,3.73
2018-05-21T23:45:03.392Z,3.57
2018-05-21T23:47:31.690Z,2.83
2018-05-21T23:49:59.229Z,4.07
2018-05-21T23:52:27.503Z,3.50
2018-05-21T23:54:55.819Z,3.43
2018-05-21T23:57:23.326Z,3.33
2018-05-21T23:59:50.849Z,3.00
